createdAt,value
2024-04-08T02:01:59.317Z,1.92
2024-04-08T02:04:26.142Z,2.13
2024-04-08T02:06:53.021Z,1.63
2024-04-08T02:09:19.928Z,2.08
2024-04-08T02:11:46.813Z,1.75
2024-04-08T02:14:13.986Z,1.92
2024-04-08T02:16:40.774Z,2.10
2024-04-08T02:19:07.507Z,2.08
2024-04-08T02:21:34.319Z,1.98
2024-04-08T02:24:01.257Z,1.92
2024-04-08T02:26:28.933Z,2.03
2024-04-08T02:28:59.293Z,2.13
2024-04-08T02:31:26.135Z,1.73
2024-04-08T02:33:53.533Z,1.88
2024-04-08T02:36:20.452Z,2.13
2024-04-08T02:38:47.349Z,1.95
2024-04-08T02:41:14.127Z,1.98
2024-04-08T02:43:40.963Z,1.55
2024-04-08T02:46:07.750Z,1.70
2024-04-08T02:48:34.517Z,1.83
2024-04-08T02:51:01.495Z,1.67
2024-04-08T02:53:28.948Z,1.60
2024-04-08T02:56:06.876Z,1.80
2024-04-08T02:58:34.823Z,2.00
2024-04-08T03:01:08.815Z,2.17
2024-04-08T03:03:38.082Z,1.83
2024-04-08T03:06:13.028Z,1.75
2024-04-08T03:08:41.563Z,1.70
2024-04-08T03:11:09.416Z,2.20
2024-04-08T03:13:38.246Z,2.17
2024-04-08T03:16:05.833Z,2.00
2024-04-08T03:18:32.953Z,1.60
2024-04-08T03:21:01.226Z,1.77
2024-04-08T03:23:28.544Z,1.70
2024-04-08T03:26:03.634Z,2.05
2024-04-08T03:28:31.018Z,2.10
2024-04-08T03:30:58.474Z,2.00
2024-04-08T03:33:28.127Z,1.95
2024-04-08T03:35:56.438Z,1.90
2024-04-08T03:38:23.468Z,1.73
2024-04-08T03:41:05.814Z,2.15
2024-04-08T03:43:33.209Z,1.80
2024-04-08T03:46:00.609Z,1.90
2024-04-08T03:48:28.115Z,1.80
2024-04-08T03:50:55.035Z,2.22
2024-04-08T03:53:23.087Z,2.65
2024-04-08T03:55:49.853Z,2.00
2024-04-08T03:58:16.594Z,1.67
2024-04-08T04:00:43.416Z,1.98
2024-04-08T04:03:11.077Z,1.85
2024-04-08T04:05:38.268Z,2.08
2024-04-08T04:08:05.224Z,2.35
2024-04-08T04:10:31.980Z,1.90
2024-04-08T04:13:00.947Z,1.90
2024-04-08T04:15:27.655Z,1.90
2024-04-08T04:17:54.691Z,2.05
2024-04-08T04:20:25.162Z,2.17
2024-04-08T04:22:51.908Z,2.70
2024-04-08T04:25:18.674Z,2.15
2024-04-08T04:27:45.514Z,2.60
2024-04-08T04:30:12.435Z,1.95
2024-04-08T04:32:39.405Z,2.20
2024-04-08T04:35:06.141Z,1.90
2024-04-08T04:37:32.905Z,2.30
2024-04-08T04:39:59.624Z,1.95
2024-04-08T04:42:26.782Z,2.50
2024-04-08T04:44:53.664Z,2.15
2024-04-08T04:47:20.668Z,2.65
2024-04-08T04:49:47.538Z,2.83
2024-04-08T04:52:14.429Z,2.92
2024-04-08T04:54:41.495Z,2.40
2024-04-08T04:57:08.463Z,2.85
2024-04-08T04:59:35.359Z,2.92
2024-04-08T05:02:02.137Z,3.47
2024-04-08T05:04:29.042Z,3.65
2024-04-08T05:06:55.830Z,2.80
2024-04-08T05:09:22.766Z,3.60
2024-04-08T05:11:49.641Z,3.65
2024-04-08T05:14:16.878Z,3.70
2024-04-08T05:16:44.366Z,3.70
2024-04-08T05:19:12.425Z,2.78
2024-04-08T05:21:39.472Z,3.10
2024-04-08T05:24:06.350Z,2.58
2024-04-08T05:26:34.255Z,2.53
2024-04-08T05:29:01.066Z,2.33
2024-04-08T05:31:27.809Z,2.10
2024-04-08T05:33:54.566Z,2.55
2024-04-08T05:36:21.362Z,2.53
2024-04-08T05:38:48.153Z,2.78
2024-04-08T05:41:14.955Z,2.20
2024-04-08T05:43:41.733Z,2.85
2024-04-08T05:46:09.269Z,2.65
2024-04-08T05:48:36.082Z,2.55
2024-04-08T05:51:05.028Z,2.35
2024-04-08T05:53:31.861Z,3.40
2024-04-08T05:55:58.584Z,5.45
2024-04-08T05:58:25.395Z,11.82
2024-04-08T06:00:52.157Z,7.57
2024-04-08T06:03:19.209Z,6.90
2024-04-08T06:05:46.472Z,4.72
2024-04-08T06:08:14.570Z,4.80
2024-04-08T06:10:46.576Z,5.03
2024-04-08T06:13:13.431Z,3.97
2024-04-08T06:15:40.624Z,3.20
2024-04-08T06:18:07.695Z,3.13
2024-04-08T06:20:34.903Z,2.88
2024-04-08T06:23:01.819Z,6.35
2024-04-08T06:25:31.650Z,5.50
2024-04-08T06:28:00.504Z,4.45
2024-04-08T06:30:27.263Z,4.68
2024-04-08T06:32:55.502Z,3.45
2024-04-08T06:35:22.372Z,3.13
2024-04-08T06:37:49.438Z,2.63
2024-04-08T06:40:16.770Z,4.13
2024-04-08T06:42:44.141Z,3.47
2024-04-08T06:45:11.098Z,3.60
2024-04-08T06:47:38.005Z,2.63
2024-04-08T06:50:05.270Z,2.50
2024-04-08T06:52:32.090Z,2.90
2024-04-08T06:54:59.659Z,2.75
2024-04-08T06:57:26.919Z,2.47
2024-04-08T06:59:53.856Z,2.72
2024-04-08T07:02:20.843Z,2.10
2024-04-08T07:04:47.626Z,2.45
2024-04-08T07:07:15.991Z,2.17
2024-04-08T07:09:42.770Z,2.42
2024-04-08T07:12:09.612Z,3.10
2024-04-08T07:14:36.399Z,3.00
2024-04-08T07:17:04.591Z,3.17
2024-04-08T07:19:31.406Z,2.53
2024-04-08T07:21:58.127Z,2.25
2024-04-08T07:24:25.006Z,3.15
2024-04-08T07:26:51.804Z,2.10
2024-04-08T07:29:21.190Z,2.33
2024-04-08T07:31:49.755Z,2.45
2024-04-08T07:34:20.906Z,2.30
2024-04-08T07:36:50.071Z,2.13
2024-04-08T07:39:17.106Z,2.17
2024-04-08T07:41:44.340Z,2.15
2024-04-08T07:44:11.310Z,2.40
2024-04-08T07:46:38.562Z,2.22
2024-04-08T07:49:05.338Z,2.17
2024-04-08T07:51:32.298Z,2.65
2024-04-08T07:53:59.164Z,2.70
2024-04-08T07:56:29.196Z,1.85
2024-04-08T07:58:56.651Z,1.63
2024-04-08T08:01:23.579Z,2.83
2024-04-08T08:03:50.815Z,2.30
2024-04-08T08:06:17.920Z,2.10
2024-04-08T08:08:45.224Z,2.25
2024-04-08T08:11:12.655Z,2.13
2024-04-08T08:13:39.625Z,2.22
2024-04-08T08:16:07.358Z,2.20
2024-04-08T08:18:35.899Z,2.10
2024-04-08T08:21:03.948Z,2.22
2024-04-08T08:23:31.335Z,1.88
2024-04-08T08:25:58.297Z,2.95
2024-04-08T08:28:25.320Z,2.30
2024-04-08T08:30:54.138Z,2.40
2024-04-08T08:33:24.141Z,1.80
2024-04-08T08:35:51.397Z,2.40
2024-04-08T08:38:18.510Z,2.00
2024-04-08T08:40:46.465Z,2.17
2024-04-08T08:43:13.218Z,1.98
2024-04-08T08:45:47.820Z,2.03
2024-04-08T08:48:15.786Z,1.90
2024-04-08T08:50:46.436Z,1.90
2024-04-08T08:53:13.785Z,1.83
2024-04-08T08:55:41.927Z,1.73
2024-04-08T08:58:11.057Z,1.90
2024-04-08T09:00:42.039Z,1.83
2024-04-08T09:03:13.319Z,1.65
2024-04-08T09:05:40.951Z,1.73
2024-04-08T09:08:08.467Z,1.90
2024-04-08T09:10:48.395Z,1.88
2024-04-08T09:13:27.861Z,1.85
2024-04-08T09:15:54.720Z,2.05
2024-04-08T09:18:23.170Z,1.48
2024-04-08T09:20:50.638Z,2.30
2024-04-08T09:23:17.658Z,1.70
2024-04-08T09:25:45.392Z,1.73
2024-04-08T09:28:13.118Z,1.73
2024-04-08T09:30:40.964Z,1.77
2024-04-08T09:33:12.142Z,1.70
2024-04-08T09:35:44.161Z,2.17
2024-04-08T09:38:13.663Z,2.03
2024-04-08T09:40:43.453Z,1.80
2024-04-08T09:43:13.843Z,1.70
2024-04-08T09:45:43.130Z,2.28
2024-04-08T09:48:14.858Z,1.80
2024-04-08T09:50:44.999Z,2.28
2024-04-08T09:53:11.932Z,1.65
2024-04-08T09:55:44.632Z,1.42
2024-04-08T09:58:19.024Z,1.90
2024-04-08T10:00:47.747Z,1.77
2024-04-08T10:03:19.847Z,2.00
2024-04-08T10:05:47.585Z,1.75
2024-04-08T10:08:15.188Z,1.65
2024-04-08T10:10:42.549Z,1.88
2024-04-08T10:13:11.413Z,1.30
2024-04-08T10:15:38.959Z,1.65
2024-04-08T10:18:07.859Z,1.80
2024-04-08T10:20:34.904Z,1.75
2024-04-08T10:23:01.890Z,1.80
2024-04-08T10:25:31.710Z,1.58
2024-04-08T10:28:05.794Z,1.60
2024-04-08T10:30:38.236Z,1.40
2024-04-08T10:33:05.807Z,1.70
2024-04-08T10:35:32.802Z,2.00
2024-04-08T10:38:00.717Z,1.67
2024-04-08T10:40:27.513Z,1.77
2024-04-08T10:42:57.076Z,1.60
2024-04-08T10:45:23.841Z,1.60
2024-04-08T10:48:01.555Z,1.90
2024-04-08T10:50:29.459Z,1.98
2024-04-08T10:52:56.495Z,1.13
2024-04-08T10:55:23.707Z,1.88
2024-04-08T10:57:50.553Z,1.67
2024-04-08T11:00:17.966Z,2.20
2024-04-08T11:02:45.222Z,1.38
2024-04-08T11:05:15.671Z,1.80
2024-04-08T11:07:44.551Z,1.50
2024-04-08T11:10:14.095Z,1.75
2024-04-08T11:12:41.469Z,1.85
2024-04-08T11:15:10.962Z,1.85
2024-04-08T11:17:37.852Z,1.42
2024-04-08T11:20:10.002Z,2.38
2024-04-08T11:22:36.848Z,1.70
2024-04-08T11:25:06.049Z,1.45
2024-04-08T11:27:34.586Z,1.77
2024-04-08T11:30:01.580Z,1.67
2024-04-08T11:32:28.371Z,2.22
2024-04-08T11:34:55.198Z,2.13
2024-04-08T11:37:21.982Z,1.80
2024-04-08T11:39:48.758Z,1.90
2024-04-08T11:42:15.885Z,1.55
2024-04-08T11:44:44.381Z,1.70
2024-04-08T11:47:19.300Z,2.00
2024-04-08T11:49:46.295Z,1.88
2024-04-08T11:52:13.828Z,1.70
2024-04-08T11:54:53.263Z,2.20
2024-04-08T11:57:27.321Z,2.20
2024-04-08T11:59:54.231Z,2.85
2024-04-08T12:02:24.065Z,2.05
2024-04-08T12:04:50.966Z,2.00
2024-04-08T12:07:18.872Z,2.30
2024-04-08T12:09:46.428Z,1.70
2024-04-08T12:12:14.980Z,1.85
2024-04-08T12:14:42.789Z,2.53
2024-04-08T12:17:10.737Z,2.95
2024-04-08T12:19:39.021Z,3.67
2024-04-08T12:22:06.578Z,2.75
2024-04-08T12:24:34.343Z,2.60
2024-04-08T12:27:01.219Z,2.85
2024-04-08T12:29:28.065Z,2.70
2024-04-08T12:31:54.818Z,2.55
2024-04-08T12:34:21.586Z,2.72
2024-04-08T12:36:48.337Z,2.85
2024-04-08T12:39:15.220Z,2.50
2024-04-08T12:41:44.473Z,2.80
2024-04-08T12:44:13.500Z,2.95
2024-04-08T12:46:40.639Z,2.80
2024-04-08T12:49:07.784Z,2.80
2024-04-08T12:51:38.586Z,2.30
2024-04-08T12:54:06.320Z,2.90
2024-04-08T12:56:33.166Z,2.75
2024-04-08T12:59:00.236Z,2.92
2024-04-08T13:01:27.266Z,2.78
2024-04-08T13:03:54.564Z,3.45
2024-04-08T13:06:21.765Z,3.45
2024-04-08T13:08:48.831Z,2.95
2024-04-08T13:11:16.852Z,2.40
2024-04-08T13:13:45.966Z,2.60
2024-04-08T13:16:14.991Z,2.70
2024-04-08T13:18:43.840Z,2.38
2024-04-08T13:21:11.498Z,2.50
2024-04-08T13:23:39.582Z,2.78
2024-04-08T13:26:09.479Z,3.10
2024-04-08T13:28:36.341Z,3.25
2024-04-08T13:31:03.295Z,2.63
2024-04-08T13:33:30.153Z,2.40
2024-04-08T13:35:57.118Z,2.05
2024-04-08T13:38:23.918Z,2.58
2024-04-08T13:40:50.753Z,2.95
2024-04-08T13:43:17.613Z,3.40
2024-04-08T13:45:44.844Z,2.70
2024-04-08T13:48:12.171Z,2.38
2024-04-08T13:50:39.033Z,2.47
2024-04-08T13:53:06.241Z,2.55
2024-04-08T13:55:35.498Z,2.70
2024-04-08T13:58:04.043Z,2.22
2024-04-08T14:00:31.373Z,2.45
2024-04-08T14:02:58.499Z,2.00
2024-04-08T14:05:25.371Z,2.30
2024-04-08T14:07:52.194Z,2.40
2024-04-08T14:10:19.029Z,2.70
2024-04-08T14:12:45.756Z,2.60
2024-04-08T14:15:12.495Z,2.75
2024-04-08T14:17:39.368Z,2.92
2024-04-08T14:20:06.766Z,2.50
2024-04-08T14:22:37.103Z,2.55
2024-04-08T14:25:05.872Z,3.10
2024-04-08T14:27:32.635Z,2.35
2024-04-08T14:30:00.956Z,2.38
2024-04-08T14:32:28.510Z,2.45
2024-04-08T14:34:55.585Z,2.25
2024-04-08T14:37:36.448Z,2.55
2024-04-08T14:40:10.111Z,2.70
2024-04-08T14:42:37.322Z,2.67
2024-04-08T14:45:05.489Z,2.80
2024-04-08T14:47:33.003Z,2.50
2024-04-08T14:49:59.927Z,3.35
2024-04-08T14:52:33.362Z,2.30
2024-04-08T14:55:06.873Z,2.08
2024-04-08T14:57:33.917Z,2.20
2024-04-08T15:00:01.015Z,2.20
2024-04-08T15:02:28.074Z,2.08
2024-04-08T15:04:55.040Z,2.95
2024-04-08T15:07:27.243Z,2.10
2024-04-08T15:09:55.360Z,2.10
2024-04-08T15:12:22.233Z,1.92
2024-04-08T15:14:49.081Z,2.47
2024-04-08T15:17:17.215Z,2.78
2024-04-08T15:19:44.409Z,2.00
2024-04-08T15:22:11.279Z,2.30
2024-04-08T15:24:38.048Z,2.50
2024-04-08T15:27:05.109Z,2.10
2024-04-08T15:29:31.904Z,2.85
2024-04-08T15:32:01.327Z,2.70
2024-04-08T15:34:28.109Z,2.45
2024-04-08T15:36:55.999Z,2.65
2024-04-08T15:39:23.001Z,1.92
2024-04-08T15:41:49.901Z,2.22
2024-04-08T15:44:16.674Z,2.47
2024-04-08T15:46:43.515Z,2.67
2024-04-08T15:49:12.256Z,2.67
2024-04-08T15:51:39.205Z,3.72
2024-04-08T15:54:08.041Z,2.22
2024-04-08T15:56:34.972Z,1.92
2024-04-08T15:59:01.792Z,2.45
2024-04-08T16:01:28.586Z,2.70
2024-04-08T16:03:55.597Z,3.25
2024-04-08T16:06:22.613Z,2.83
2024-04-08T16:08:49.537Z,2.30
2024-04-08T16:11:20.577Z,1.88
2024-04-08T16:13:47.449Z,2.13
2024-04-08T16:16:14.324Z,2.10
2024-04-08T16:18:42.335Z,2.40
2024-04-08T16:21:09.342Z,2.55
2024-04-08T16:23:52.089Z,1.88
2024-04-08T16:28:58.080Z,2.33
2024-04-08T16:31:31.413Z,1.75
2024-04-08T16:33:59.380Z,2.38
2024-04-08T16:36:29.256Z,2.10
2024-04-08T16:38:56.430Z,2.08
2024-04-08T16:41:23.521Z,2.00
2024-04-08T16:43:51.340Z,2.67
2024-04-08T16:46:19.908Z,2.22
2024-04-08T16:48:47.047Z,2.05
2024-04-08T16:51:15.131Z,2.20
2024-04-08T16:53:42.235Z,2.53
2024-04-08T16:56:09.191Z,2.60
2024-04-08T16:58:36.006Z,2.03
2024-04-08T17:01:03.175Z,2.53
2024-04-08T17:03:30.549Z,2.47
2024-04-08T17:06:05.803Z,2.08
2024-04-08T17:08:33.238Z,2.45
2024-04-08T17:11:03.254Z,2.20
2024-04-08T17:13:37.552Z,2.40
2024-04-08T17:16:05.681Z,3.55
2024-04-08T17:18:32.638Z,3.05
2024-04-08T17:21:02.566Z,2.00
2024-04-08T17:23:29.711Z,2.65
2024-04-08T17:25:58.685Z,2.35
2024-04-08T17:28:26.470Z,2.38
2024-04-08T17:30:59.082Z,2.80
2024-04-08T17:33:27.497Z,2.80
2024-04-08T17:35:58.584Z,2.90
2024-04-08T17:38:26.427Z,2.55
2024-04-08T17:41:07.145Z,2.65
2024-04-08T17:43:37.116Z,2.67
2024-04-08T17:46:05.608Z,2.90
2024-04-08T17:48:34.663Z,2.55
2024-04-08T17:51:03.716Z,2.95
2024-04-08T17:53:32.312Z,2.72
2024-04-08T17:56:00.695Z,2.60
2024-04-08T17:58:29.351Z,3.15
2024-04-08T18:00:57.154Z,3.15
2024-04-08T18:03:24.199Z,2.78
2024-04-08T18:05:51.125Z,2.80
2024-04-08T18:08:18.694Z,2.90
2024-04-08T18:10:55.843Z,2.47
2024-04-08T18:13:22.831Z,2.35
2024-04-08T18:15:49.675Z,2.67
2024-04-08T18:18:16.696Z,3.10
2024-04-08T18:20:46.145Z,2.72
2024-04-08T18:23:13.004Z,2.00
2024-04-08T18:25:39.819Z,2.58
2024-04-08T18:28:07.701Z,2.83
2024-04-08T18:30:37.190Z,3.45
2024-04-08T18:33:04.467Z,4.40
2024-04-08T18:35:31.593Z,4.72
2024-04-08T18:37:58.493Z,3.25
2024-04-08T18:40:25.325Z,3.13
2024-04-08T18:42:52.144Z,2.50
2024-04-08T18:45:18.990Z,4.20
2024-04-08T18:47:45.809Z,3.72
2024-04-08T18:50:12.849Z,4.28
2024-04-08T18:52:42.517Z,3.03
2024-04-08T18:55:09.516Z,4.22
2024-04-08T18:57:38.780Z,3.72
2024-04-08T19:00:06.279Z,3.53
2024-04-08T19:02:36.319Z,3.28
2024-04-08T19:05:06.205Z,3.22
2024-04-08T19:07:36.500Z,2.80
2024-04-08T19:10:05.903Z,4.07
2024-04-08T19:12:35.783Z,3.13
2024-04-08T19:15:02.975Z,2.95
2024-04-08T19:17:30.200Z,3.22
2024-04-08T19:19:59.943Z,3.60
2024-04-08T19:22:26.725Z,3.22
2024-04-08T19:24:55.298Z,2.90
2024-04-08T19:27:25.328Z,3.67
2024-04-08T19:29:52.671Z,3.28
2024-04-08T19:32:20.241Z,3.85
2024-04-08T19:34:51.506Z,3.97
2024-04-08T19:37:18.345Z,3.00
2024-04-08T19:39:49.855Z,2.65
2024-04-08T19:42:16.999Z,2.80
2024-04-08T19:44:43.951Z,3.05
2024-04-08T19:47:11.245Z,3.10
2024-04-08T19:49:43.834Z,3.17
2024-04-08T19:52:13.255Z,3.10
2024-04-08T19:54:40.271Z,3.40
2024-04-08T19:57:16.367Z,3.28
2024-04-08T19:59:43.385Z,3.00
2024-04-08T20:02:10.984Z,3.33
2024-04-08T20:04:40.109Z,3.10
2024-04-08T20:07:07.054Z,3.25
2024-04-08T20:09:36.874Z,2.80
2024-04-08T20:12:03.875Z,3.00
2024-04-08T20:14:33.328Z,2.97
2024-04-08T20:17:00.278Z,2.78
2024-04-08T20:19:29.129Z,3.22
2024-04-08T20:21:56.197Z,3.28
2024-04-08T20:24:23.143Z,2.92
2024-04-08T20:26:50.051Z,2.83
2024-04-08T20:29:21.904Z,2.70
2024-04-08T20:31:48.748Z,3.20
2024-04-08T20:34:18.676Z,2.72
2024-04-08T20:36:48.079Z,2.92
2024-04-08T20:39:15.497Z,3.20
2024-04-08T20:41:42.440Z,2.70
2024-04-08T20:44:09.316Z,3.15
2024-04-08T20:46:36.049Z,3.00
2024-04-08T20:49:04.458Z,3.05
2024-04-08T20:51:39.260Z,2.85
2024-04-08T20:54:12.461Z,2.67
2024-04-08T20:56:40.791Z,3.20
2024-04-08T20:59:07.589Z,2.47
2024-04-08T21:01:34.673Z,2.85
2024-04-08T21:04:01.580Z,2.90
2024-04-08T21:06:28.679Z,3.20
2024-04-08T21:08:55.568Z,2.58
2024-04-08T21:11:22.493Z,2.80
2024-04-08T21:13:51.764Z,2.80
2024-04-08T21:16:18.666Z,3.30
2024-04-08T21:18:48.621Z,3.47
2024-04-08T21:21:15.753Z,3.22
2024-04-08T21:23:45.014Z,3.35
2024-04-08T21:26:15.019Z,2.80
2024-04-08T21:28:44.106Z,3.00
2024-04-08T21:31:14.195Z,2.55
2024-04-08T21:33:43.811Z,3.13
2024-04-08T21:36:11.561Z,3.25
2024-04-08T21:38:38.680Z,2.95
2024-04-08T21:41:09.526Z,3.28
2024-04-08T21:43:38.851Z,3.00
2024-04-08T21:46:09.305Z,2.90
2024-04-08T21:48:39.194Z,3.00
2024-04-08T21:51:10.393Z,3.25
2024-04-08T21:53:39.482Z,2.92
2024-04-08T21:56:06.865Z,2.67
2024-04-08T21:58:35.891Z,3.25
2024-04-08T22:01:10.002Z,3.15
2024-04-08T22:03:40.610Z,2.83
2024-04-08T22:06:12.643Z,2.92
2024-04-08T22:08:43.059Z,3.13
2024-04-08T22:11:11.028Z,3.00
2024-04-08T22:13:38.487Z,2.75
2024-04-08T22:16:06.339Z,3.08
2024-04-08T22:18:33.870Z,2.97
2024-04-08T22:21:00.949Z,2.42
2024-04-08T22:23:30.079Z,2.60
2024-04-08T22:25:59.508Z,3.03
2024-04-08T22:28:26.595Z,2.97
2024-04-08T22:30:53.469Z,2.80
2024-04-08T22:33:20.501Z,2.45
2024-04-08T22:35:47.450Z,2.85
2024-04-08T22:38:17.079Z,2.90
2024-04-08T22:40:46.008Z,2.60
2024-04-08T22:43:13.278Z,3.15
2024-04-08T22:45:40.596Z,2.67
2024-04-08T22:48:08.287Z,2.90
2024-04-08T22:50:38.178Z,2.80
2024-04-08T22:53:05.554Z,2.42
2024-04-08T22:55:32.471Z,2.67
2024-04-08T22:57:59.682Z,2.65
2024-04-08T23:00:26.618Z,2.70
2024-04-08T23:02:59.114Z,3.08
2024-04-08T23:05:27.956Z,3.00
2024-04-08T23:07:54.859Z,3.50
2024-04-08T23:10:22.422Z,4.10
2024-04-08T23:12:49.472Z,2.95
2024-04-08T23:15:16.530Z,3.28
2024-04-08T23:17:43.729Z,2.78
2024-04-08T23:20:10.667Z,2.78
2024-04-08T23:22:37.692Z,2.65
2024-04-08T23:25:05.318Z,2.50
2024-04-08T23:27:34.692Z,2.45
2024-04-08T23:30:03.359Z,2.63
2024-04-08T23:32:32.855Z,2.63
2024-04-08T23:35:03.642Z,2.60
2024-04-08T23:37:30.927Z,2.40
2024-04-08T23:40:00.443Z,3.08
2024-04-08T23:42:29.789Z,2.75
2024-04-08T23:44:59.410Z,3.17
2024-04-08T23:47:26.584Z,3.13
2024-04-08T23:49:54.924Z,2.83
2024-04-08T23:52:21.784Z,3.28
2024-04-08T23:54:49.345Z,2.75
2024-04-08T23:57:16.826Z,2.70
2024-04-08T23:59:45.966Z,2.60
